Aviation Digital Data Service (ADDS)

Output produced by METARs form (1859 UTC 21 November 2014)
found at http://www.aviationweather.gov/adds/metars/
 
KSEG 211853Z AUTO 29008KT 10SM CLR 01/M14 A3040 RMK AO2 SLP298 T00111139
KSEG 211753Z AUTO 30007G16KT 250V330 10SM OVC055 01/M13 A3039 RMK AO2 SLP295 T00061133 10006 21050 51004
KSEG 211653Z AUTO 34010G15KT 10SM BKN049 M01/M13 A3038 RMK AO2 SLP295 T10061128
KSEG 211553Z AUTO 32012G19KT 10SM FEW047 M02/M13 A3039 RMK AO2 SLP298 T10171128
KSEG 211453Z AUTO 30014G18KT 10SM CLR M02/M13 A3037 RMK AO2 SLP292 T10171128 51034
KSEG 211353Z AUTO 28006G17KT 10SM CLR M03/M12 A3035 RMK AO2 SLP284 T10281122
KSEG 211253Z AUTO 28007KT 10SM CLR M04/M13 A3031 RMK AO2 SLP272 T10391128
KSEG 211153Z AUTO 00000KT 10SM CLR M05/M13 A3027 RMK AO2 SLP258 T10501128 11028 21050 53034
KSEG 211053Z AUTO 29007KT 10SM CLR M04/M12 A3023 RMK AO2 SLP243 T10441122
KSEG 210953Z AUTO 25005KT 10SM SCT044 M04/M12 A3020 RMK AO2 SLP233 T10441122
KSEG 210853Z AUTO 28004KT 10SM CLR M04/M12 A3017 RMK AO2 SLP222 T10391122 53025
KSEG 210753Z AUTO 27006G18KT 10SM CLR M04/M12 A3014 RMK AO2 SLP213 T10391122
KSEG 210653Z AUTO 26007KT 10SM CLR M04/M13 A3012 RMK AO2 SLP203 T10391133
KSEG 210553Z AUTO 28007G15KT 10SM CLR M03/M13 A3010 RMK AO2 SLP197 T10281133 11017 21033 53014
KSEG 210453Z AUTO 27007KT 210V310 10SM CLR M03/M13 A3008 RMK AO2 SLP191 T10281133 400441033
KSEG 210353Z AUTO VRB03KT 10SM CLR M03/M13 A3006 RMK AO2 SLP185 T10281133
KSEG 210253Z AUTO 26005KT 10SM CLR M02/M13 A3006 RMK AO2 SLP183 T10221128 51007
KSEG 210153Z AUTO 22003KT 10SM CLR M03/M12 A3005 RMK AO2 SLP181 T10281122
KSEG 210053Z AUTO 27005KT 10SM CLR M02/M13 A3005 RMK AO2 SLP181 T10171128
KSEG 202353Z AUTO 28004KT 10SM CLR M02/M12 A3004 RMK AO2 SLP176 T10171122 10033 21017 51032
KSEG 202253Z AUTO 28007G16KT 10SM CLR M01/M12 A3001 RMK AO2 SLP166 T10111122
KSEG 202153Z AUTO 28009KT 260V320 10SM CLR 00/M12 A2997 RMK AO2 SLP155 T00001117
KSEG 202053Z AUTO 27008KT 230V300 10SM FEW055 02/M11 A2994 RMK AO2 SLP143 T00171106 53008
KSEG 201953Z AUTO 27012G20KT 10SM CLR 03/M10 A2992 RMK AO2 SLP135 T00281100
KSEG 201853Z AUTO 28010G18KT 10SM CLR 03/M10 A2992 RMK AO2 SLP136 T00331100
KSEG 201753Z AUTO 27008G21KT 10SM CLR 03/M09 A2992 RMK AO2 SLP135 T00331089 10044 21006 58009
KSEG 201653Z AUTO 28007G18KT 10SM SCT050 04/M08 A2993 RMK AO2 SLP138 T00391083
KSEG 201553Z AUTO 24011G23KT 10SM SCT055 04/M09 A2994 RMK AO2 SLP145 T00391089
KSEG 201453Z AUTO 26011G26KT 10SM BKN050 03/M09 A2994 RMK AO2 PK WND 23026/1446 SLP144 T00281089 51009
KSEG 201353Z AUTO 26008KT 10SM OVC055 03/M07 A2994 RMK AO2 SLP144 T00281072
KSEG 201253Z AUTO 19003KT 10SM OVC055 00/M09 A2993 RMK AO2 SLP139 T00001089
KSEG 201153Z AUTO 00000KT 10SM BKN055 OVC070 M01/M09 A2991 RMK AO2 SLP134 T10061094 10000 21017 53004
KSEG 201053Z AUTO 22004KT 10SM SCT049 BKN060 OVC070 M01/M10 A2990 RMK AO2 SLP129 T10061100
KSEG 200953Z AUTO 21005KT 10SM OVC065 M01/M11 A2989 RMK AO2 SLP127 T10061106
KSEG 200853Z AUTO VRB03KT 10SM OVC070 M01/M10 A2990 RMK AO2 SLP130 T10111100 58015
KSEG 200753Z AUTO VRB04KT 10SM OVC060 M01/M10 A2992 RMK AO2 SLP137 T10111100